sensor_id;sensor_type;location;lat;lon;timestamp;P1;durP1;ratioP1;P2;durP2;ratioP2
2173;SDS011;1093;51.424;11.764;2023-04-10T00:02:01;31.60;;;18.00;;
2173;SDS011;1093;51.424;11.764;2023-04-10T00:04:27;34.83;;;20.13;;
2173;SDS011;1093;51.424;11.764;2023-04-10T00:06:54;30.50;;;19.57;;
2173;SDS011;1093;51.424;11.764;2023-04-10T00:09:21;37.50;;;20.80;;
2173;SDS011;1093;51.424;11.764;2023-04-10T00:11:48;40.23;;;21.73;;
2173;SDS011;1093;51.424;11.764;2023-04-10T00:14:15;30.20;;;20.43;;
2173;SDS011;1093;51.424;11.764;2023-04-10T00:16:47;32.57;;;21.07;;
2173;SDS011;1093;51.424;11.764;2023-04-10T00:19:15;34.03;;;21.40;;
2173;SDS011;1093;51.424;11.764;2023-04-10T00:21:42;35.97;;;20.70;;
2173;SDS011;1093;51.424;11.764;2023-04-10T00:24:09;30.13;;;20.67;;
2173;SDS011;1093;51.424;11.764;2023-04-10T00:26:36;36.50;;;21.80;;
2173;SDS011;1093;51.424;11.764;2023-04-10T00:29:02;29.37;;;20.10;;
2173;SDS011;1093;51.424;11.764;2023-04-10T00:31:30;33.07;;;21.47;;
2173;SDS011;1093;51.424;11.764;2023-04-10T00:33:57;35.53;;;22.90;;
2173;SDS011;1093;51.424;11.764;2023-04-10T00:36:25;35.13;;;22.67;;
2173;SDS011;1093;51.424;11.764;2023-04-10T00:38:52;37.60;;;23.27;;
2173;SDS011;1093;51.424;11.764;2023-04-10T00:41:19;40.70;;;21.80;;
2173;SDS011;1093;51.424;11.764;2023-04-10T00:43:48;33.90;;;21.73;;
2173;SDS011;1093;51.424;11.764;2023-04-10T00:46:14;44.90;;;23.17;;
2173;SDS011;1093;51.424;11.764;2023-04-10T00:48:41;35.00;;;20.53;;
2173;SDS011;1093;51.424;11.764;2023-04-10T00:51:08;37.33;;;22.20;;
2173;SDS011;1093;51.424;11.764;2023-04-10T00:53:38;36.13;;;21.50;;
2173;SDS011;1093;51.424;11.764;2023-04-10T00:56:05;36.00;;;20.60;;
2173;SDS011;1093;51.424;11.764;2023-04-10T00:58:32;35.70;;;23.20;;
2173;SDS011;1093;51.424;11.764;2023-04-10T01:00:59;39.23;;;25.27;;
2173;SDS011;1093;51.424;11.764;2023-04-10T01:03:27;37.00;;;23.10;;
2173;SDS011;1093;51.424;11.764;2023-04-10T01:05:57;37.00;;;19.83;;
2173;SDS011;1093;51.424;11.764;2023-04-10T01:08:34;32.40;;;19.93;;
2173;SDS011;1093;51.424;11.764;2023-04-10T01:11:12;35.60;;;19.03;;
2173;SDS011;1093;51.424;11.764;2023-04-10T01:13:46;29.00;;;17.60;;
2173;SDS011;1093;51.424;11.764;2023-04-10T01:16:19;33.97;;;20.20;;
2173;SDS011;1093;51.424;11.764;2023-04-10T01:18:52;36.87;;;19.97;;
2173;SDS011;1093;51.424;11.764;2023-04-10T01:21:22;34.90;;;20.03;;
2173;SDS011;1093;51.424;11.764;2023-04-10T01:23:57;35.53;;;20.07;;
2173;SDS011;1093;51.424;11.764;2023-04-10T01:26:41;33.93;;;20.67;;
2173;SDS011;1093;51.424;11.764;2023-04-10T01:29:30;32.70;;;19.90;;
2173;SDS011;1093;51.424;11.764;2023-04-10T01:32:00;36.63;;;21.47;;
2173;SDS011;1093;51.424;11.764;2023-04-10T01:34:31;36.40;;;20.37;;
2173;SDS011;1093;51.424;11.764;2023-04-10T01:37:01;37.93;;;22.30;;
2173;SDS011;1093;51.424;11.764;2023-04-10T01:39:29;42.20;;;23.63;;
2173;SDS011;1093;51.424;11.764;2023-04-10T01:42:00;42.27;;;24.00;;
2173;SDS011;1093;51.424;11.764;2023-04-10T01:44:28;38.70;;;23.63;;
2173;SDS011;1093;51.424;11.764;2023-04-10T01:46:56;41.33;;;21.13;;
2173;SDS011;1093;51.424;11.764;2023-04-10T01:49:26;36.07;;;21.13;;
2173;SDS011;1093;51.424;11.764;2023-04-10T01:51:54;45.80;;;22.37;;
2173;SDS011;1093;51.424;11.764;2023-04-10T01:54:24;39.73;;;23.33;;
2173;SDS011;1093;51.424;11.764;2023-04-10T01:56:52;40.00;;;21.90;;
2173;SDS011;1093;51.424;11.764;2023-04-10T01:59:20;42.37;;;22.00;;
2173;SDS011;1093;51.424;11.764;2023-04-10T02:01:49;42.43;;;21.53;;
2173;SDS011;1093;51.424;11.764;2023-04-10T02:04:21;42.50;;;24.90;;
2173;SDS011;1093;51.424;11.764;2023-04-10T02:06:49;38.97;;;23.27;;
2173;SDS011;1093;51.424;11.764;2023-04-10T02:09:21;35.30;;;21.07;;
2173;SDS011;1093;51.424;11.764;2023-04-10T02:11:54;29.97;;;20.43;;
2173;SDS011;1093;51.424;11.764;2023-04-10T02:14:24;39.70;;;23.47;;
2173;SDS011;1093;51.424;11.764;2023-04-10T02:16:55;40.90;;;21.37;;
2173;SDS011;1093;51.424;11.764;2023-04-10T02:19:22;31.10;;;17.40;;
2173;SDS011;1093;51.424;11.764;2023-04-10T02:21:50;35.50;;;18.30;;
2173;SDS011;1093;51.424;11.764;2023-04-10T02:24:18;33.47;;;20.70;;
2173;SDS011;1093;51.424;11.764;2023-04-10T02:26:46;29.97;;;18.97;;
2173;SDS011;1093;51.424;11.764;2023-04-10T02:29:13;31.47;;;18.97;;
2173;SDS011;1093;51.424;11.764;2023-04-10T02:31:40;35.27;;;21.40;;
2173;SDS011;1093;51.424;11.764;2023-04-10T02:34:09;41.43;;;19.73;;
2173;SDS011;1093;51.424;11.764;2023-04-10T02:36:36;38.43;;;22.10;;
2173;SDS011;1093;51.424;11.764;2023-04-10T02:39:04;44.23;;;22.33;;
2173;SDS011;1093;51.424;11.764;2023-04-10T02:41:32;37.63;;;22.03;;
2173;SDS011;1093;51.424;11.764;2023-04-10T02:43:58;35.20;;;22.07;;
2173;SDS011;1093;51.424;11.764;2023-04-10T02:46:25;36.80;;;21.50;;
2173;SDS011;1093;51.424;11.764;2023-04-10T02:48:52;39.57;;;22.87;;
2173;SDS011;1093;51.424;11.764;2023-04-10T02:51:20;31.60;;;20.80;;
2173;SDS011;1093;51.424;11.764;2023-04-10T02:53:47;33.50;;;20.63;;
2173;SDS011;1093;51.424;11.764;2023-04-10T02:56:14;41.40;;;22.97;;
2173;SDS011;1093;51.424;11.764;2023-04-10T02:58:42;39.30;;;21.63;;
2173;SDS011;1093;51.424;11.764;2023-04-10T03:01:10;39.03;;;20.80;;
2173;SDS011;1093;51.424;11.764;2023-04-10T03:03:37;35.40;;;21.33;;
2173;SDS011;1093;51.424;11.764;2023-04-10T03:06:04;32.83;;;22.90;;
2173;SDS011;1093;51.424;11.764;2023-04-10T03:08:32;37.50;;;23.10;;
2173;SDS011;1093;51.424;11.764;2023-04-10T03:10:59;39.07;;;21.90;;
2173;SDS011;1093;51.424;11.764;2023-04-10T03:13:26;40.53;;;22.80;;
2173;SDS011;1093;51.424;11.764;2023-04-10T03:15:52;43.30;;;22.00;;
2173;SDS011;1093;51.424;11.764;2023-04-10T03:18:19;47.30;;;24.63;;
2173;SDS011;1093;51.424;11.764;2023-04-10T03:20:47;37.70;;;23.10;;
2173;SDS011;1093;51.424;11.764;2023-04-10T03:23:14;38.47;;;22.13;;
2173;SDS011;1093;51.424;11.764;2023-04-10T03:25:42;29.20;;;18.57;;
2173;SDS011;1093;51.424;11.764;2023-04-10T03:28:08;38.60;;;21.50;;
2173;SDS011;1093;51.424;11.764;2023-04-10T03:30:35;47.30;;;22.23;;
2173;SDS011;1093;51.424;11.764;2023-04-10T03:33:02;42.07;;;23.43;;
2173;SDS011;1093;51.424;11.764;2023-04-10T03:35:29;34.50;;;24.17;;
2173;SDS011;1093;51.424;11.764;2023-04-10T03:37:56;39.13;;;24.50;;
2173;SDS011;1093;51.424;11.764;2023-04-10T03:40:22;42.60;;;23.90;;
2173;SDS011;1093;51.424;11.764;2023-04-10T03:42:50;37.03;;;22.07;;
2173;SDS011;1093;51.424;11.764;2023-04-10T03:45:17;41.87;;;24.90;;
2173;SDS011;1093;51.424;11.764;2023-04-10T03:47:44;34.20;;;21.27;;
2173;SDS011;1093;51.424;11.764;2023-04-10T03:50:11;41.07;;;22.90;;
2173;SDS011;1093;51.424;11.764;2023-04-10T03:52:38;33.70;;;21.10;;
2173;SDS011;1093;51.424;11.764;2023-04-10T03:55:05;38.10;;;21.90;;
2173;SDS011;1093;51.424;11.764;2023-04-10T03:57:32;31.40;;;19.87;;
2173;SDS011;1093;51.424;11.764;2023-04-10T04:00:01;36.30;;;22.53;;
2173;SDS011;1093;51.424;11.764;2023-04-10T04:02:28;35.03;;;20.50;;
2173;SDS011;1093;51.424;11.764;2023-04-10T04:04:54;35.53;;;19.87;;
2173;SDS011;1093;51.424;11.764;2023-04-10T04:07:21;36.53;;;20.67;;
2173;SDS011;1093;51.424;11.764;2023-04-10T04:09:48;37.93;;;19.93;;
2173;SDS011;1093;51.424;11.764;2023-04-10T04:12:15;41.33;;;21.80;;
2173;SDS011;1093;51.424;11.764;2023-04-10T04:14:41;31.83;;;19.37;;
2173;SDS011;1093;51.424;11.764;2023-04-10T04:17:10;32.40;;;19.53;;
2173;SDS011;1093;51.424;11.764;2023-04-10T04:19:37;36.93;;;19.97;;
2173;SDS011;1093;51.424;11.764;2023-04-10T04:22:04;40.43;;;21.23;;
2173;SDS011;1093;51.424;11.764;2023-04-10T04:24:30;38.17;;;21.97;;
2173;SDS011;1093;51.424;11.764;2023-04-10T04:26:57;40.37;;;22.47;;
2173;SDS011;1093;51.424;11.764;2023-04-10T04:29:25;38.10;;;22.97;;
2173;SDS011;1093;51.424;11.764;2023-04-10T04:31:51;37.57;;;20.60;;
2173;SDS011;1093;51.424;11.764;2023-04-10T04:34:19;39.03;;;20.37;;
2173;SDS011;1093;51.424;11.764;2023-04-10T04:36:46;39.00;;;20.90;;
2173;SDS011;1093;51.424;11.764;2023-04-10T04:39:13;33.90;;;19.57;;
2173;SDS011;1093;51.424;11.764;2023-04-10T04:41:39;39.60;;;23.23;;
2173;SDS011;1093;51.424;11.764;2023-04-10T04:44:06;35.30;;;20.17;;
2173;SDS011;1093;51.424;11.764;2023-04-10T04:46:33;41.37;;;21.30;;
2173;SDS011;1093;51.424;11.764;2023-04-10T04:49:00;34.87;;;21.80;;
2173;SDS011;1093;51.424;11.764;2023-04-10T04:51:28;32.00;;;21.30;;
2173;SDS011;1093;51.424;11.764;2023-04-10T04:53:54;37.00;;;21.73;;
2173;SDS011;1093;51.424;11.764;2023-04-10T04:56:21;37.60;;;22.60;;
2173;SDS011;1093;51.424;11.764;2023-04-10T04:58:48;35.83;;;19.77;;
2173;SDS011;1093;51.424;11.764;2023-04-10T05:01:14;34.03;;;20.00;;
2173;SDS011;1093;51.424;11.764;2023-04-10T05:03:41;39.90;;;22.77;;
2173;SDS011;1093;51.424;11.764;2023-04-10T05:06:08;34.93;;;18.50;;
2173;SDS011;1093;51.424;11.764;2023-04-10T05:08:36;38.60;;;21.40;;
2173;SDS011;1093;51.424;11.764;2023-04-10T05:11:03;41.67;;;20.40;;
2173;SDS011;1093;51.424;11.764;2023-04-10T05:13:30;35.07;;;20.03;;
2173;SDS011;1093;51.424;11.764;2023-04-10T05:15:57;39.47;;;19.27;;
2173;SDS011;1093;51.424;11.764;2023-04-10T05:18:24;30.97;;;19.43;;
2173;SDS011;1093;51.424;11.764;2023-04-10T05:20:51;29.87;;;19.10;;
2173;SDS011;1093;51.424;11.764;2023-04-10T05:23:17;36.00;;;21.70;;
2173;SDS011;1093;51.424;11.764;2023-04-10T05:25:45;36.80;;;20.83;;
2173;SDS011;1093;51.424;11.764;2023-04-10T05:28:12;41.17;;;20.17;;
2173;SDS011;1093;51.424;11.764;2023-04-10T05:30:39;39.40;;;21.27;;
2173;SDS011;1093;51.424;11.764;2023-04-10T05:33:05;35.97;;;20.33;;
2173;SDS011;1093;51.424;11.764;2023-04-10T05:35:32;37.70;;;20.23;;
2173;SDS011;1093;51.424;11.764;2023-04-10T05:37:59;42.20;;;24.63;;
2173;SDS011;1093;51.424;11.764;2023-04-10T05:40:27;47.23;;;22.53;;
2173;SDS011;1093;51.424;11.764;2023-04-10T05:42:55;48.10;;;23.20;;
2173;SDS011;1093;51.424;11.764;2023-04-10T05:45:22;47.13;;;24.57;;
2173;SDS011;1093;51.424;11.764;2023-04-10T05:47:49;44.87;;;24.90;;
2173;SDS011;1093;51.424;11.764;2023-04-10T05:50:16;47.40;;;25.50;;
2173;SDS011;1093;51.424;11.764;2023-04-10T05:52:42;39.03;;;22.73;;
2173;SDS011;1093;51.424;11.764;2023-04-10T05:55:10;39.40;;;22.90;;
2173;SDS011;1093;51.424;11.764;2023-04-10T05:57:37;41.97;;;23.27;;
2173;SDS011;1093;51.424;11.764;2023-04-10T06:00:06;50.03;;;28.87;;
2173;SDS011;1093;51.424;11.764;2023-04-10T06:02:34;50.60;;;29.33;;
2173;SDS011;1093;51.424;11.764;2023-04-10T06:05:00;57.20;;;28.00;;
2173;SDS011;1093;51.424;11.764;2023-04-10T06:07:27;60.43;;;31.23;;
2173;SDS011;1093;51.424;11.764;2023-04-10T06:09:56;71.57;;;33.77;;
2173;SDS011;1093;51.424;11.764;2023-04-10T06:12:23;58.13;;;31.67;;
2173;SDS011;1093;51.424;11.764;2023-04-10T06:14:50;54.03;;;30.90;;
2173;SDS011;1093;51.424;11.764;2023-04-10T06:17:18;74.67;;;34.23;;
2173;SDS011;1093;51.424;11.764;2023-04-10T06:19:46;63.13;;;35.80;;
2173;SDS011;1093;51.424;11.764;2023-04-10T06:22:13;53.23;;;36.57;;
2173;SDS011;1093;51.424;11.764;2023-04-10T06:24:39;68.40;;;36.23;;
2173;SDS011;1093;51.424;11.764;2023-04-10T06:27:06;76.73;;;40.37;;
2173;SDS011;1093;51.424;11.764;2023-04-10T06:29:34;68.33;;;38.30;;
2173;SDS011;1093;51.424;11.764;2023-04-10T06:32:00;77.50;;;39.13;;
2173;SDS011;1093;51.424;11.764;2023-04-10T06:34:28;69.23;;;34.87;;
2173;SDS011;1093;51.424;11.764;2023-04-10T06:36:55;70.97;;;37.73;;
2173;SDS011;1093;51.424;11.764;2023-04-10T06:39:22;76.00;;;36.37;;
2173;SDS011;1093;51.424;11.764;2023-04-10T06:41:49;65.57;;;36.37;;
2173;SDS011;1093;51.424;11.764;2023-04-10T06:44:16;64.17;;;36.87;;
2173;SDS011;1093;51.424;11.764;2023-04-10T06:46:42;68.27;;;40.97;;
2173;SDS011;1093;51.424;11.764;2023-04-10T06:49:10;74.47;;;39.10;;
2173;SDS011;1093;51.424;11.764;2023-04-10T06:51:38;64.53;;;34.60;;
2173;SDS011;1093;51.424;11.764;2023-04-10T06:54:05;56.30;;;33.20;;
2173;SDS011;1093;51.424;11.764;2023-04-10T06:56:32;56.47;;;32.20;;
2173;SDS011;1093;51.424;11.764;2023-04-10T06:58:58;56.53;;;31.77;;
2173;SDS011;1093;51.424;11.764;2023-04-10T07:01:25;55.87;;;33.80;;
2173;SDS011;1093;51.424;11.764;2023-04-10T07:03:52;48.83;;;28.60;;
2173;SDS011;1093;51.424;11.764;2023-04-10T07:06:19;55.93;;;30.07;;
2173;SDS011;1093;51.424;11.764;2023-04-10T07:08:48;43.70;;;28.77;;
2173;SDS011;1093;51.424;11.764;2023-04-10T07:11:16;50.70;;;29.60;;
2173;SDS011;1093;51.424;11.764;2023-04-10T07:13:42;42.37;;;27.13;;
2173;SDS011;1093;51.424;11.764;2023-04-10T07:16:09;44.63;;;27.37;;
2173;SDS011;1093;51.424;11.764;2023-04-10T07:18:36;44.23;;;27.47;;
2173;SDS011;1093;51.424;11.764;2023-04-10T07:21:08;46.13;;;26.70;;
2173;SDS011;1093;51.424;11.764;2023-04-10T07:23:36;45.97;;;28.63;;
2173;SDS011;1093;51.424;11.764;2023-04-10T07:26:04;43.87;;;26.27;;
2173;SDS011;1093;51.424;11.764;2023-04-10T07:28:31;49.00;;;27.70;;
2173;SDS011;1093;51.424;11.764;2023-04-10T07:30:58;42.57;;;27.47;;
2173;SDS011;1093;51.424;11.764;2023-04-10T07:33:24;46.60;;;28.40;;
2173;SDS011;1093;51.424;11.764;2023-04-10T07:35:51;38.37;;;24.00;;
2173;SDS011;1093;51.424;11.764;2023-04-10T07:38:18;40.40;;;25.10;;
2173;SDS011;1093;51.424;11.764;2023-04-10T07:40:45;41.70;;;26.33;;
2173;SDS011;1093;51.424;11.764;2023-04-10T07:43:13;37.70;;;24.77;;
2173;SDS011;1093;51.424;11.764;2023-04-10T07:45:40;39.83;;;24.80;;
2173;SDS011;1093;51.424;11.764;2023-04-10T07:48:07;40.50;;;25.50;;
2173;SDS011;1093;51.424;11.764;2023-04-10T07:50:34;36.17;;;24.67;;
2173;SDS011;1093;51.424;11.764;2023-04-10T07:53:01;39.10;;;24.93;;
2173;SDS011;1093;51.424;11.764;2023-04-10T07:55:36;42.40;;;25.10;;
2173;SDS011;1093;51.424;11.764;2023-04-10T07:58:03;38.97;;;23.77;;
2173;SDS011;1093;51.424;11.764;2023-04-10T08:00:31;34.33;;;22.27;;
2173;SDS011;1093;51.424;11.764;2023-04-10T08:02:58;36.23;;;24.50;;
2173;SDS011;1093;51.424;11.764;2023-04-10T08:05:25;37.60;;;24.30;;
2173;SDS011;1093;51.424;11.764;2023-04-10T08:07:52;33.40;;;23.40;;
2173;SDS011;1093;51.424;11.764;2023-04-10T08:10:19;36.07;;;22.37;;
2173;SDS011;1093;51.424;11.764;2023-04-10T08:12:45;31.37;;;21.63;;
2173;SDS011;1093;51.424;11.764;2023-04-10T08:15:12;38.03;;;25.60;;
2173;SDS011;1093;51.424;11.764;2023-04-10T08:17:40;32.37;;;22.07;;
2173;SDS011;1093;51.424;11.764;2023-04-10T08:20:08;34.43;;;23.87;;
2173;SDS011;1093;51.424;11.764;2023-04-10T08:22:35;32.63;;;24.13;;
2173;SDS011;1093;51.424;11.764;2023-04-10T08:25:03;34.40;;;24.20;;
2173;SDS011;1093;51.424;11.764;2023-04-10T08:27:30;33.93;;;22.57;;
2173;SDS011;1093;51.424;11.764;2023-04-10T08:29:57;34.97;;;22.87;;
2173;SDS011;1093;51.424;11.764;2023-04-10T08:32:23;34.30;;;23.33;;
2173;SDS011;1093;51.424;11.764;2023-04-10T08:34:52;33.43;;;20.00;;
2173;SDS011;1093;51.424;11.764;2023-04-10T08:37:19;30.57;;;20.90;;
2173;SDS011;1093;51.424;11.764;2023-04-10T08:39:46;29.57;;;21.17;;
2173;SDS011;1093;51.424;11.764;2023-04-10T08:42:13;28.93;;;19.90;;
2173;SDS011;1093;51.424;11.764;2023-04-10T08:44:40;35.60;;;21.73;;
2173;SDS011;1093;51.424;11.764;2023-04-10T08:47:06;30.93;;;21.10;;
2173;SDS011;1093;51.424;11.764;2023-04-10T08:49:36;29.20;;;20.53;;
2173;SDS011;1093;51.424;11.764;2023-04-10T08:52:14;26.77;;;19.53;;
2173;SDS011;1093;51.424;11.764;2023-04-10T08:54:47;30.80;;;22.47;;
2173;SDS011;1093;51.424;11.764;2023-04-10T08:57:16;30.70;;;20.03;;
2173;SDS011;1093;51.424;11.764;2023-04-10T08:59:44;30.20;;;20.07;;
2173;SDS011;1093;51.424;11.764;2023-04-10T09:02:11;30.40;;;21.30;;
2173;SDS011;1093;51.424;11.764;2023-04-10T09:04:38;28.47;;;19.50;;
2173;SDS011;1093;51.424;11.764;2023-04-10T09:07:09;27.97;;;19.67;;
2173;SDS011;1093;51.424;11.764;2023-04-10T09:09:38;24.83;;;19.07;;
2173;SDS011;1093;51.424;11.764;2023-04-10T09:12:05;26.60;;;19.33;;
2173;SDS011;1093;51.424;11.764;2023-04-10T09:14:33;28.73;;;19.30;;
2173;SDS011;1093;51.424;11.764;2023-04-10T09:17:10;28.27;;;19.33;;
2173;SDS011;1093;51.424;11.764;2023-04-10T09:19:42;29.53;;;21.30;;
2173;SDS011;1093;51.424;11.764;2023-04-10T09:22:10;30.00;;;19.73;;
2173;SDS011;1093;51.424;11.764;2023-04-10T09:24:39;27.93;;;20.33;;
2173;SDS011;1093;51.424;11.764;2023-04-10T09:27:07;26.47;;;19.73;;
2173;SDS011;1093;51.424;11.764;2023-04-10T09:29:38;26.70;;;18.77;;
2173;SDS011;1093;51.424;11.764;2023-04-10T09:32:07;26.20;;;19.13;;
2173;SDS011;1093;51.424;11.764;2023-04-10T09:34:33;29.10;;;19.17;;
2173;SDS011;1093;51.424;11.764;2023-04-10T09:37:16;24.10;;;16.40;;
2173;SDS011;1093;51.424;11.764;2023-04-10T09:39:46;22.10;;;16.20;;
2173;SDS011;1093;51.424;11.764;2023-04-10T09:42:13;23.40;;;17.53;;
2173;SDS011;1093;51.424;11.764;2023-04-10T09:44:40;28.53;;;16.97;;
2173;SDS011;1093;51.424;11.764;2023-04-10T09:47:14;23.97;;;16.60;;
2173;SDS011;1093;51.424;11.764;2023-04-10T09:49:45;26.37;;;17.90;;
2173;SDS011;1093;51.424;11.764;2023-04-10T09:52:17;22.93;;;16.63;;
2173;SDS011;1093;51.424;11.764;2023-04-10T09:54:46;22.10;;;16.97;;
2173;SDS011;1093;51.424;11.764;2023-04-10T09:57:13;20.73;;;15.40;;
2173;SDS011;1093;51.424;11.764;2023-04-10T09:59:43;20.97;;;15.63;;
2173;SDS011;1093;51.424;11.764;2023-04-10T10:02:16;18.47;;;12.70;;
2173;SDS011;1093;51.424;11.764;2023-04-10T10:04:44;21.07;;;15.00;;
2173;SDS011;1093;51.424;11.764;2023-04-10T10:07:13;22.13;;;14.00;;
2173;SDS011;1093;51.424;11.764;2023-04-10T10:09:41;20.70;;;12.50;;
2173;SDS011;1093;51.424;11.764;2023-04-10T10:12:11;18.70;;;13.03;;
2173;SDS011;1093;51.424;11.764;2023-04-10T10:14:43;17.60;;;12.37;;
2173;SDS011;1093;51.424;11.764;2023-04-10T10:17:23;17.30;;;13.80;;
2173;SDS011;1093;51.424;11.764;2023-04-10T10:19:55;21.20;;;14.60;;
2173;SDS011;1093;51.424;11.764;2023-04-10T10:22:27;18.53;;;13.27;;
2173;SDS011;1093;51.424;11.764;2023-04-10T10:24:54;15.50;;;11.93;;
2173;SDS011;1093;51.424;11.764;2023-04-10T10:27:25;19.70;;;13.50;;
2173;SDS011;1093;51.424;11.764;2023-04-10T10:29:53;13.90;;;11.53;;
2173;SDS011;1093;51.424;11.764;2023-04-10T10:32:21;18.80;;;13.70;;
2173;SDS011;1093;51.424;11.764;2023-04-10T10:34:50;21.20;;;14.07;;
2173;SDS011;1093;51.424;11.764;2023-04-10T10:37:18;17.47;;;13.33;;
2173;SDS011;1093;51.424;11.764;2023-04-10T10:39:48;13.80;;;10.07;;
2173;SDS011;1093;51.424;11.764;2023-04-10T10:42:22;15.93;;;11.43;;
2173;SDS011;1093;51.424;11.764;2023-04-10T10:44:59;13.37;;;11.30;;
2173;SDS011;1093;51.424;11.764;2023-04-10T10:47:33;16.93;;;12.70;;
2173;SDS011;1093;51.424;11.764;2023-04-10T10:50:05;15.40;;;12.00;;
2173;SDS011;1093;51.424;11.764;2023-04-10T10:52:36;14.00;;;10.70;;
2173;SDS011;1093;51.424;11.764;2023-04-10T10:57:58;10.13;;;7.40;;
2173;SDS011;1093;51.424;11.764;2023-04-10T11:03:26;11.37;;;7.80;;
2173;SDS011;1093;51.424;11.764;2023-04-10T11:05:54;10.20;;;8.03;;
2173;SDS011;1093;51.424;11.764;2023-04-10T11:08:34;10.30;;;8.30;;
2173;SDS011;1093;51.424;11.764;2023-04-10T11:11:04;15.53;;;8.47;;
2173;SDS011;1093;51.424;11.764;2023-04-10T11:13:33;9.47;;;7.93;;
2173;SDS011;1093;51.424;11.764;2023-04-10T11:16:02;11.97;;;8.57;;
2173;SDS011;1093;51.424;11.764;2023-04-10T11:21:27;14.60;;;8.90;;
2173;SDS011;1093;51.424;11.764;2023-04-10T11:24:01;11.00;;;8.30;;
2173;SDS011;1093;51.424;11.764;2023-04-10T11:26:35;12.07;;;8.83;;
2173;SDS011;1093;51.424;11.764;2023-04-10T11:29:05;11.83;;;9.20;;
2173;SDS011;1093;51.424;11.764;2023-04-10T11:31:57;11.43;;;9.17;;
2173;SDS011;1093;51.424;11.764;2023-04-10T11:34:25;11.60;;;9.77;;
2173;SDS011;1093;51.424;11.764;2023-04-10T11:36:54;14.67;;;10.87;;
2173;SDS011;1093;51.424;11.764;2023-04-10T11:39:22;16.70;;;11.73;;
2173;SDS011;1093;51.424;11.764;2023-04-10T11:41:50;16.07;;;11.43;;
2173;SDS011;1093;51.424;11.764;2023-04-10T11:44:27;12.37;;;9.90;;
2173;SDS011;1093;51.424;11.764;2023-04-10T11:46:55;14.73;;;9.97;;
2173;SDS011;1093;51.424;11.764;2023-04-10T11:49:23;15.07;;;10.60;;
2173;SDS011;1093;51.424;11.764;2023-04-10T11:51:52;13.37;;;10.37;;
2173;SDS011;1093;51.424;11.764;2023-04-10T11:54:19;16.40;;;11.77;;
2173;SDS011;1093;51.424;11.764;2023-04-10T11:56:54;14.87;;;10.10;;
2173;SDS011;1093;51.424;11.764;2023-04-10T11:59:24;13.93;;;10.70;;
2173;SDS011;1093;51.424;11.764;2023-04-10T12:01:52;13.73;;;10.40;;
2173;SDS011;1093;51.424;11.764;2023-04-10T12:04:20;16.30;;;11.53;;
2173;SDS011;1093;51.424;11.764;2023-04-10T12:06:48;15.70;;;12.10;;
2173;SDS011;1093;51.424;11.764;2023-04-10T12:09:16;14.03;;;10.87;;
2173;SDS011;1093;51.424;11.764;2023-04-10T12:11:48;15.87;;;12.13;;
2173;SDS011;1093;51.424;11.764;2023-04-10T12:14:16;14.53;;;11.33;;
2173;SDS011;1093;51.424;11.764;2023-04-10T12:16:45;16.33;;;11.87;;
2173;SDS011;1093;51.424;11.764;2023-04-10T12:19:12;15.20;;;11.57;;
2173;SDS011;1093;51.424;11.764;2023-04-10T12:21:40;12.30;;;11.00;;
2173;SDS011;1093;51.424;11.764;2023-04-10T12:24:08;19.23;;;14.23;;
2173;SDS011;1093;51.424;11.764;2023-04-10T12:26:35;15.07;;;12.40;;
2173;SDS011;1093;51.424;11.764;2023-04-10T12:29:02;15.57;;;11.47;;
2173;SDS011;1093;51.424;11.764;2023-04-10T12:31:31;15.60;;;10.80;;
2173;SDS011;1093;51.424;11.764;2023-04-10T12:34:02;15.87;;;10.80;;
2173;SDS011;1093;51.424;11.764;2023-04-10T12:36:30;15.70;;;11.43;;
2173;SDS011;1093;51.424;11.764;2023-04-10T12:39:00;15.60;;;12.43;;
2173;SDS011;1093;51.424;11.764;2023-04-10T12:41:28;13.73;;;11.17;;
2173;SDS011;1093;51.424;11.764;2023-04-10T12:44:06;16.20;;;11.00;;
2173;SDS011;1093;51.424;11.764;2023-04-10T12:46:34;17.30;;;12.00;;
2173;SDS011;1093;51.424;11.764;2023-04-10T12:49:10;15.83;;;11.90;;
2173;SDS011;1093;51.424;11.764;2023-04-10T12:51:41;15.90;;;11.63;;
2173;SDS011;1093;51.424;11.764;2023-04-10T12:54:09;16.80;;;12.47;;
2173;SDS011;1093;51.424;11.764;2023-04-10T12:56:39;14.80;;;11.37;;
2173;SDS011;1093;51.424;11.764;2023-04-10T12:59:07;17.57;;;12.63;;
2173;SDS011;1093;51.424;11.764;2023-04-10T13:01:35;16.90;;;12.67;;
2173;SDS011;1093;51.424;11.764;2023-04-10T13:04:02;15.90;;;12.60;;
2173;SDS011;1093;51.424;11.764;2023-04-10T13:06:31;16.20;;;13.23;;
2173;SDS011;1093;51.424;11.764;2023-04-10T13:08:57;17.10;;;13.37;;
2173;SDS011;1093;51.424;11.764;2023-04-10T13:11:24;18.03;;;13.10;;
2173;SDS011;1093;51.424;11.764;2023-04-10T13:13:51;15.97;;;12.67;;
2173;SDS011;1093;51.424;11.764;2023-04-10T13:16:17;13.53;;;11.67;;
2173;SDS011;1093;51.424;11.764;2023-04-10T13:18:44;16.60;;;12.23;;
2173;SDS011;1093;51.424;11.764;2023-04-10T13:21:11;13.90;;;10.87;;
2173;SDS011;1093;51.424;11.764;2023-04-10T13:27:00;15.30;;;11.53;;
2173;SDS011;1093;51.424;11.764;2023-04-10T13:29:27;13.73;;;11.60;;
2173;SDS011;1093;51.424;11.764;2023-04-10T13:31:54;13.37;;;11.97;;
2173;SDS011;1093;51.424;11.764;2023-04-10T13:34:21;17.33;;;12.80;;
2173;SDS011;1093;51.424;11.764;2023-04-10T13:36:47;14.20;;;10.77;;
2173;SDS011;1093;51.424;11.764;2023-04-10T13:39:14;13.27;;;11.57;;
2173;SDS011;1093;51.424;11.764;2023-04-10T13:41:42;14.77;;;11.77;;
2173;SDS011;1093;51.424;11.764;2023-04-10T13:44:10;17.60;;;12.70;;
2173;SDS011;1093;51.424;11.764;2023-04-10T13:46:37;18.10;;;11.87;;
2173;SDS011;1093;51.424;11.764;2023-04-10T13:49:04;17.13;;;11.80;;
2173;SDS011;1093;51.424;11.764;2023-04-10T13:51:31;15.53;;;12.87;;
2173;SDS011;1093;51.424;11.764;2023-04-10T13:53:58;15.60;;;12.80;;
2173;SDS011;1093;51.424;11.764;2023-04-10T13:56:26;16.30;;;12.30;;
2173;SDS011;1093;51.424;11.764;2023-04-10T13:58:54;16.27;;;14.37;;
2173;SDS011;1093;51.424;11.764;2023-04-10T14:01:23;15.03;;;11.70;;
2173;SDS011;1093;51.424;11.764;2023-04-10T14:03:49;17.80;;;11.87;;
2173;SDS011;1093;51.424;11.764;2023-04-10T14:06:16;13.97;;;11.30;;
2173;SDS011;1093;51.424;11.764;2023-04-10T14:08:43;13.40;;;10.67;;
2173;SDS011;1093;51.424;11.764;2023-04-10T14:11:09;17.73;;;12.60;;
2173;SDS011;1093;51.424;11.764;2023-04-10T14:13:36;16.20;;;11.33;;
2173;SDS011;1093;51.424;11.764;2023-04-10T14:16:03;12.90;;;11.00;;
2173;SDS011;1093;51.424;11.764;2023-04-10T14:18:32;13.77;;;11.43;;
2173;SDS011;1093;51.424;11.764;2023-04-10T14:20:58;15.00;;;11.23;;
2173;SDS011;1093;51.424;11.764;2023-04-10T14:23:25;13.37;;;11.73;;
2173;SDS011;1093;51.424;11.764;2023-04-10T14:25:52;13.80;;;9.40;;
2173;SDS011;1093;51.424;11.764;2023-04-10T14:28:19;12.23;;;10.80;;
2173;SDS011;1093;51.424;11.764;2023-04-10T14:30:46;13.90;;;9.70;;
2173;SDS011;1093;51.424;11.764;2023-04-10T14:33:13;12.53;;;10.33;;
2173;SDS011;1093;51.424;11.764;2023-04-10T14:35:43;12.33;;;9.37;;
2173;SDS011;1093;51.424;11.764;2023-04-10T14:38:10;10.97;;;9.40;;
2173;SDS011;1093;51.424;11.764;2023-04-10T14:40:37;12.07;;;9.50;;
2173;SDS011;1093;51.424;11.764;2023-04-10T14:43:04;11.33;;;9.10;;
2173;SDS011;1093;51.424;11.764;2023-04-10T14:45:31;9.73;;;8.70;;
2173;SDS011;1093;51.424;11.764;2023-04-10T14:47:58;10.40;;;8.10;;
2173;SDS011;1093;51.424;11.764;2023-04-10T14:50:26;9.10;;;7.90;;
2173;SDS011;1093;51.424;11.764;2023-04-10T14:52:54;10.00;;;9.00;;
2173;SDS011;1093;51.424;11.764;2023-04-10T14:55:23;10.57;;;8.53;;